KSTC/STC METAR and TAF weather

Enter ICAO airport designator
Station Type Date Time Source
KSTC METAR 2020/06/01 14:53 UTC NOAA

KSTC 011453Z 18015G25KT 10SM CLR 23/14 A2983 RMK AO2 SLP105 T02330144 58021


Station Type Date Time Source
KSTC Decoded METAR 2020/06/01 14:53 UTC NOAA

ST. CLOUD REGIONAL AIRPORT, MN, United States (KSTC) 45-33N 094-03W
Jun 01, 2020 - 10:53 AM EDT / 2020.06.01 1453 UTC
Wind: from the S (180 degrees) at 17 MPH (15 KT) gusting to 29 MPH (25 KT):0
Visibility: 10 mile(s):0
Sky conditions: clear
Temperature: 73.9 F (23.3 C)
Dew Point: 57.9 F (14.4 C)
Relative Humidity: 57%
Pressure (altimeter): 29.83 in. Hg (1010 hPa)
Pressure tendency: 0.06 inches (2.1 hPa) lower than three hours ago
ob: KSTC 011453Z 18015G25KT 10SM CLR 23/14 A2983 RMK AO2 SLP105 T02330144 58021
cycle: 15

Station Type Date Time Source
KSTC TAF 2020/06/01 14:58 UTC NOAA

TAF
AMD KSTC 011356Z 0114/0212 15014G22KT P6SM SCT120
FM011800 20010KT P6SM SCT045
FM012200 24008KT P6SM SKC
FM020600 27004KT P6SM SKC
FM020900 03003KT P6SM SCT250

Example: see airport list